Calling Lake, Canada
Current Conditions -  °F | °C
As of 7:00 AM on Thursday 30 Oct 2014 (Local Time) from CYZH Reporting Station
Haze Haze  
Wind Chill: 26°   Ceiling: 1000
Heat Index: 36°   Visibility: 4mi
Dew Point: 32°   Wind: 16mph
Humidity: 87%   Direction: 130°SE
Pressure: 30.17"   Gusts: 22mph
Location:  55.25°N, 113.2°W
Report Text: CYZH 301300Z AUTO 13014G19KT 4SM BR OVC010 02/00 A3017 RMK SLP245
Loading
Personal Weather Stations






























Interactive Weather Map
Tropical Storm Tracking
New forecast layout! Learn more

10-Day Weather Forecast

Advertisements
Track Severe Weather on mobile